createdAt,value
2023-03-22T00:00:38.073Z,65.62
2023-03-22T00:06:05.210Z,65.12
2023-03-22T00:11:32.054Z,65.12
2023-03-22T00:16:59.111Z,65.44
2023-03-22T00:22:26.373Z,65.47
2023-03-22T00:27:53.681Z,65.57
2023-03-22T00:33:21.760Z,65.81
2023-03-22T00:38:49.198Z,65.57
2023-03-22T00:44:16.273Z,66.52
2023-03-22T00:49:45.452Z,66.65
2023-03-22T00:55:13.025Z,66.90
2023-03-22T01:00:40.580Z,67.27
2023-03-22T01:06:08.931Z,66.74
2023-03-22T01:11:36.470Z,67.17
2023-03-22T01:17:04.907Z,67.07
2023-03-22T01:22:32.187Z,67.06
2023-03-22T01:27:59.639Z,66.63
2023-03-22T01:33:27.541Z,66.54
2023-03-22T01:38:55.121Z,66.74
2023-03-22T01:49:53.832Z,66.28
2023-03-22T01:55:23.701Z,66.45
2023-03-22T02:01:00.348Z,66.53
2023-03-22T02:06:42.759Z,66.74
2023-03-22T02:12:36.968Z,67.45
2023-03-22T02:18:39.281Z,67.86
2023-03-22T02:24:43.886Z,67.63
2023-03-22T02:30:32.133Z,67.58
2023-03-22T02:36:24.390Z,68.05
2023-03-22T02:42:06.452Z,67.57
2023-03-22T02:47:49.453Z,68.19
2023-03-22T02:53:22.919Z,67.46
2023-03-22T02:58:55.178Z,67.44
2023-03-22T03:04:29.119Z,67.39
2023-03-22T03:10:01.437Z,67.77
2023-03-22T03:15:28.662Z,67.72
2023-03-22T03:21:22.401Z,67.63
2023-03-22T03:27:07.489Z,67.75
2023-03-22T03:32:42.359Z,66.92
2023-03-22T03:38:15.270Z,66.67
2023-03-22T03:43:43.711Z,66.54
2023-03-22T03:49:13.231Z,66.47
2023-03-22T03:54:42.024Z,66.44
2023-03-22T04:00:15.372Z,66.58
2023-03-22T04:06:04.595Z,66.12
2023-03-22T04:11:36.732Z,66.36
2023-03-22T04:17:04.876Z,66.17
2023-03-22T04:22:34.780Z,66.14
2023-03-22T04:28:04.502Z,66.29
2023-03-22T04:33:39.711Z,66.29
2023-03-22T04:39:26.001Z,66.60
2023-03-22T04:45:03.786Z,66.71
2023-03-22T04:50:31.901Z,67.65
2023-03-22T04:56:05.911Z,67.87
2023-03-22T05:01:35.639Z,68.32
2023-03-22T05:07:12.286Z,68.16
2023-03-22T05:12:48.406Z,68.45
2023-03-22T05:18:26.494Z,68.18
2023-03-22T05:23:59.013Z,68.19
2023-03-22T05:29:28.322Z,68.25
2023-03-22T05:35:15.823Z,67.54
2023-03-22T05:40:49.620Z,67.81
2023-03-22T05:52:52.395Z,67.05
2023-03-22T05:58:44.007Z,66.67
2023-03-22T06:04:17.315Z,66.11
2023-03-22T06:10:05.854Z,65.19
2023-03-22T06:15:33.305Z,64.73
2023-03-22T06:21:06.885Z,64.18
2023-03-22T06:26:34.485Z,62.68
2023-03-22T06:32:03.969Z,61.54
2023-03-22T06:37:33.159Z,59.02
2023-03-22T06:43:05.122Z,52.37
2023-03-22T06:48:35.013Z,40.67
2023-03-22T06:54:06.448Z,36.17
2023-03-22T06:59:34.999Z,35.13
2023-03-22T07:05:03.314Z,33.57
2023-03-22T07:10:31.308Z,34.47
2023-03-22T07:16:01.719Z,34.38
2023-03-22T07:21:39.284Z,33.23
2023-03-22T07:27:11.474Z,34.85
2023-03-22T07:32:42.230Z,34.30
2023-03-22T07:38:13.989Z,32.12
2023-03-22T07:43:53.960Z,31.93
2023-03-22T07:49:24.458Z,32.56
2023-03-22T07:55:05.892Z,32.45
2023-03-22T08:00:34.000Z,31.67
2023-03-22T08:06:33.752Z,30.80
2023-03-22T08:12:01.748Z,28.22
2023-03-22T08:17:30.537Z,28.35
2023-03-22T08:22:57.892Z,26.02
2023-03-22T08:28:27.784Z,26.35
2023-03-22T08:33:55.682Z,25.61
2023-03-22T08:39:24.719Z,24.46
2023-03-22T08:45:11.135Z,23.40
2023-03-22T08:50:45.344Z,22.45
2023-03-22T08:56:22.889Z,21.30
2023-03-22T09:02:03.632Z,21.57
2023-03-22T09:07:31.841Z,22.39
2023-03-22T09:13:17.803Z,24.13
2023-03-22T09:18:51.588Z,23.97
2023-03-22T09:24:21.514Z,24.60
2023-03-22T09:29:54.645Z,24.21
2023-03-22T09:35:22.265Z,24.89
2023-03-22T09:41:06.600Z,25.48
2023-03-22T09:46:41.005Z,26.80
2023-03-22T09:52:14.850Z,26.43
2023-03-22T09:57:42.329Z,26.01
2023-03-22T10:03:22.082Z,24.80
2023-03-22T10:09:02.131Z,25.60
2023-03-22T10:15:05.289Z,26.10
2023-03-22T10:20:46.706Z,25.30
2023-03-22T10:26:34.913Z,25.52
2023-03-22T10:32:32.399Z,24.64
2023-03-22T10:38:03.828Z,25.11
2023-03-22T10:43:39.950Z,25.68
2023-03-22T10:49:08.505Z,26.65
2023-03-22T10:54:38.044Z,26.99
2023-03-22T11:00:13.881Z,27.58
2023-03-22T11:05:41.150Z,27.60
2023-03-22T11:11:20.943Z,28.06
2023-03-22T11:17:07.015Z,28.18
2023-03-22T11:22:48.538Z,29.26
2023-03-22T11:28:22.196Z,28.61
2023-03-22T11:34:01.012Z,29.11
2023-03-22T11:39:29.558Z,29.75
2023-03-22T11:44:57.680Z,30.79
2023-03-22T11:50:27.388Z,29.50
2023-03-22T11:55:58.118Z,29.97
2023-03-22T12:01:35.735Z,29.74
2023-03-22T12:07:11.847Z,29.40
2023-03-22T12:12:54.981Z,27.58
2023-03-22T12:18:38.914Z,27.77
2023-03-22T12:24:21.362Z,27.89
2023-03-22T12:30:00.287Z,28.63
2023-03-22T12:35:32.343Z,28.06
2023-03-22T12:41:05.024Z,27.26
2023-03-22T12:46:43.105Z,27.64
2023-03-22T12:52:13.006Z,26.93
2023-03-22T12:57:40.614Z,26.25
2023-03-22T13:03:23.368Z,27.42
2023-03-22T13:09:24.949Z,28.12
2023-03-22T13:15:01.964Z,27.22
2023-03-22T13:20:34.230Z,27.32
2023-03-22T13:26:06.225Z,27.21
2023-03-22T13:31:44.720Z,26.77
2023-03-22T13:37:31.347Z,26.59
2023-03-22T13:43:16.869Z,27.17
2023-03-22T13:48:47.997Z,27.88
2023-03-22T13:54:18.684Z,27.77
2023-03-22T14:00:15.129Z,26.21
2023-03-22T14:05:46.359Z,25.89
2023-03-22T14:11:55.859Z,25.68
2023-03-22T14:17:35.897Z,26.45
